Station: Middle Point

  Atmospheric Gas Attenuation - ITU Rec 676-11   --------------- db/100km ---------------
Date Time Temp RH % AH g/m3 Dew Point Wind Direction Speed kph Gust kph Barometer mB Rainfall Since 9am 24GHz 47GHz 76GHz 122GHz 134GHz 241GHz
11 21:30 27.3 90 23.55 25.5 2 4 1010.1 0 50.4 47.7 96.7 256.1 289.3 1005.2
11 21:20 27.2 91 23.68 25.6 2 4 1013.1 0 50.7 48.1 97.7 258.8 292.4 1016.0
11 21:10 27.2 91 23.68 25.6 4 6 1013.1 0 50.7 48.1 97.7 258.8 292.4 1016.0
11 21:00 27.1 89 23.03 25.1 6 7 1010 0 49.3 46.7 94.3 249.8 281.4 977.9
11 20:50 27.4 88 23.16 25.2 6 6 1013.1 0 49.5 46.9 94.8 251.1 283.0 983.3
11 20:40 27.6 90 23.94 25.8 4 4 1013.1 0 51.2 48.4 98.5 261.0 295.2 1025.6
11 20:30 27.7 89 23.81 25.7 7 7 1009.3 0 50.9 47.9 97.5 258.1 291.9 1014.2
11 20:20 27.9 88 23.8 25.7 7 9 1013.1 0 50.8 48.0 97.4 258.0 291.6 1013.4
11 20:10 28 87 23.66 25.6 6 6 1013.1 0 50.5 47.6 96.6 255.8 288.9 1004.0
11 20:00 28.1 86 23.52 25.5 7 7 1009.2 0 50.2 47.1 95.5 252.8 285.5 992.1
11 19:50 28.6 84 23.61 25.6 9 9 1013.1 0 50.3 47.2 95.6 253.0 285.7 993.1
11 19:40 28.8 84 23.87 25.8 7 9 1013.1 0 50.8 47.6 96.6 255.8 289.2 1005.2
11 19:30 28.7 83 23.46 25.5 7 9 1009 0 50.0 46.6 94.4 250.0 282.2 980.7
11 19:20 28.8 84 23.87 25.8 7 7 1013.1 0 50.8 47.6 96.6 255.8 289.2 1005.2
11 19:10 29.2 82 23.81 25.8 7 9 1013.1 0 50.7 47.2 95.8 253.7 286.7 996.4
11 19:00 29.5 81 23.91 25.9 9 11 1008.6 0 50.9 47.0 95.6 253.2 286.3 995.2
11 18:50 29.6 80 23.74 25.9 7 7 1013.1 0 50.5 46.8 94.9 251.4 284.0 987.2
11 18:40 30.1 77 23.48 25.6 9 11 1013.1 0 49.8 46.1 93.0 246.3 277.9 966.2
11 18:30 30.4 75 23.25 25.5 9 17 1008.1 0 49.4 45.2 91.2 241.5 272.3 946.6
11 18:20 30.7 73 22.99 25.3 11 13 1013.1 0 48.7 44.8 89.9 238.1 268.0 931.7
11 18:10 31.2 66 21.35 24.3 11 11 1013.1 0 45.2 41.4 81.6 216.1 241.2 838.7
11 18:00 31.8 65 21.72 24.4 6 6 1007.8 0 46.0 41.6 82.3 218.1 243.9 848.3
11 17:50 32.6 58 20.22 23.5 6 6 1013.1 0 42.7 38.7 75.1 198.9 220.4 766.6
11 17:40 33.5 55 20.11 23.5 4 4 1013.1 0 42.4 38.1 73.8 195.3 216.3 752.3
11 17:30 33.6 53 19.48 22.7 6 7 1007.5 0 41.1 36.8 70.7 187.1 206.4 718.0
11 17:20 33.8 54 20.06 23.4 6 6 1013.1 0 42.3 37.9 73.3 194.0 214.7 747.0
11 17:10 33.9 51 19.04 22.6 7 7 1013.1 0 40.1 36.1 68.9 182.3 200.4 697.1
11 17:00 33.9 52 19.42 22.7 7 11 1007.6 0 41.0 36.5 70.2 185.8 204.8 712.5
11 16:50 34.1 53 20 23.4 4 6 1013.1 0 42.1 37.7 72.8 192.6 213.1 741.2
11 16:40 34.1 51 19.25 22.8 7 7 1013.1 0 40.5 36.4 69.6 184.2 202.7 705.3
11 16:30 34.2 50 18.97 22.6 9 13 1007.6 0 40.0 35.7 68.0 180.1 197.9 688.5
11 16:20 34.2 49 18.59 22.2 11 11 1013.1 0 39.2 35.2 66.8 176.7 193.6 673.3
11 16:10 34.9 46 18.1 21.9 4 6 1013.1 0 38.1 34.2 64.2 169.9 185.3 644.8
11 16:00 34.8 46 18.01 21.5 2 6 1007.3 0 38.0 33.8 63.6 168.3 183.6 638.8
11 15:50 34.9 43 16.92 20.8 4 6 1013.1 0 35.7 32.3 59.5 157.4 170.1 591.6
11 15:40 35.3 43 17.28 21.1 4 6 1013.1 0 36.4 32.7 60.6 160.4 173.8 604.6
11 15:30 35 42 16.61 20.5 2 6 1007.4 0 35.0 31.5 58.0 153.3 165.3 574.8
11 15:20 34.9 41 16.13 20 0 4 1013.1 0 34.0 31.0 56.5 149.4 160.2 556.9
11 15:10 35 40 15.82 19.7 2 4 1013.1 0 33.4 30.5 55.3 146.0 156.1 542.8
11 15:00 34.6 43 16.66 20.2 4 9 1007.6 0 35.2 31.8 58.5 154.6 166.8 580.0
11 14:50 34.7 39 15.19 19.1 4 6 1013.1 0 32.1 29.7 53.1 140.3 149.0 517.8
11 14:40 34.7 46 17.91 21.7 0 2 1013.1 0 37.7 33.9 63.6 168.3 183.3 637.7
11 14:30 34.4 48 18.4 21.8 9 13 1008 0 38.8 34.7 65.5 173.5 189.8 660.4
11 14:20 34.8 45 17.61 21.4 9 11 1013.1 0 37.1 33.4 62.3 164.9 179.2 623.3
11 14:10 34.3 47 17.92 21.7 6 9 1013.1 0 37.8 34.1 64.0 169.2 184.4 641.4
11 14:00 34.5 51 19.65 22.9 6 11 1008.3 0 41.4 36.7 70.6 187.0 206.4 718.2
11 13:50 34.2 48 18.21 21.9 6 6 1013.1 0 38.4 34.6 65.2 172.6 188.5 655.6
11 13:40 34.9 45 17.71 21.2 6 9 1013.1 0 37.3 33.5 62.7 165.7 180.3 627.0
11 13:30 34.5 51 19.65 23.2 4 7 1008.7 0 41.4 36.7 70.7 187.0 206.5 718.4
11 13:20 34.1 53 20 23.4 2 2 1013.1 0 42.1 37.7 72.8 192.6 213.1 741.2
11 13:10 33.5 54 19.74 23.2 9 11 1013.1 0 41.6 37.5 72.2 191.1 211.1 734.3
11 13:00 34.1 58 21.89 24.7 2 6 1009.3 0 46.0 40.8 80.7 213.9 239.3 832.5
11 12:50 33.9 55 20.54 23.8 2 4 1013.1 0 43.2 38.7 75.3 199.3 221.2 769.5
11 12:40 33.5 58 21.21 24.1 2 4 1013.1 0 44.7 40.1 78.6 208.1 231.9 806.8
11 12:30 33.4 58 21.1 24 4 7 1009.8 0 44.5 39.8 78.0 206.6 230.1 800.6
11 12:20 33.2 57 20.51 23.8 6 7 1013.1 0 43.3 39.0 75.8 200.7 222.8 775.0
11 12:10 32.9 57 20.19 23.5 4 6 1013.1 0 42.6 38.5 74.7 197.8 219.1 762.1
11 12:00 32.9 56 19.84 23.2 4 9 1010.5 0 41.9 37.8 73.0 193.4 213.8 743.6
11 11:50 32.9 60 21.25 24.1 6 7 1013.1 0 44.8 40.4 79.4 210.2 234.4 815.2
11 11:40 32.9 57 20.19 23.5 0 2 1013.1 0 42.6 38.5 74.7 197.8 219.1 762.1
11 11:30 32.3 59 20.24 23.5 4 6 1010.9 0 42.8 38.8 75.4 199.6 221.2 769.4
11 11:20 32.1 60 20.37 23.6 4 6 1013.1 0 43.1 39.2 76.3 202.0 224.0 779.1
11 11:10 32.3 61 20.93 23.8 6 6 1013.1 0 44.2 40.1 78.6 208.0 231.5 805.3
11 11:00 31.9 60 20.15 23.2 2 6 1011.1 0 42.7 38.8 75.4 199.6 221.1 769.0
11 10:50 32.3 61 20.93 23.8 0 0 1013.1 0 44.2 40.1 78.6 208.0 231.5 805.3
11 10:40 31.5 63 20.71 23.8 0 2 1013.1 0 43.9 40.1 78.4 207.6 230.8 802.5
11 10:30 31.6 61 20.16 23.2 2 6 1011.4 0 42.7 39.0 75.8 200.5 222.2 772.7
11 10:20 31.6 62 20.49 23.6 2 2 1013.1 0 43.4 39.7 77.3 204.7 227.3 790.3
11 10:10 31.1 64 20.6 23.7 4 4 1013.1 0 43.7 40.1 78.3 207.3 230.4 801.1
11 10:00 31 66 21.13 23.9 2 6 1011.5 0 44.8 41.0 80.7 213.8 238.3 828.5
11 09:50 31 68 21.77 24.4 0 0 1013.1 0 46.1 42.3 83.8 221.9 248.2 862.9
11 09:40 30.6 71 22.24 24.9 0 0 1013.1 0 47.2 43.4 86.4 228.9 256.7 892.5
11 09:30 30 72 21.84 24.4 2 6 1011.4 0 46.4 42.9 85.1 225.4 252.3 877.1
11 09:20 29.4 72 21.14 23.8 4 4 1013.1 0 45.0 41.9 82.6 218.7 243.8 847.6
11 09:10 29 76 21.83 24.3 4 6 1013.1 0 46.5 43.4 86.3 228.6 255.8 889.2
11 09:00 28.9 76 21.71 24.2 4 6 1011.2 0 46.3 43.2 85.7 227.0 254.0 882.8
11 08:50 28.7 83 23.46 25.5 6 6 1013.1 0 50.0 46.8 94.7 250.7 282.9 983.3
11 08:40 28 84 22.85 25 4 6 1013.1 0 48.8 46.0 92.5 244.9 275.6 957.9
11 08:30 27.6 88 23.41 25.4 2 4 1010.9 0 50.0 47.2 95.7 253.4 285.9 993.6
11 08:20 26.9 94 24.06 25.8 2 2 1013.1 0 51.5 49.1 100.1 265.1 300.0 1042.4
11 08:10 26.4 96 23.9 25.8 4 4 1013.1 0 51.2 49.1 99.9 264.7 299.4 1040.0
11 08:00 26.1 100 24.48 26.1 0 0 1010.7 0 52.5 50.4 103.2 273.4 310.1 1077.2
11 07:50 25.7 100 23.94 25.7 0 0 1013.1 0 51.4 49.6 101.1 267.7 302.9 1052.3
11 07:40 25.2 100 23.28 25.2 0 0 1013.1 0 50.1 48.5 98.3 260.3 293.7 1020.1
11 07:30 24.8 100 22.76 24.8 0 0 1010.5 0 49.0 47.5 95.9 254.0 285.9 993.1
11 07:20 24.5 100 22.38 24.5 0 0 1013.1 0 48.2 47.0 94.5 250.3 281.1 976.4
11 07:10 24.4 100 22.25 24.4 0 0 1013.1 0 48.0 46.8 94.0 248.8 279.3 970.1
11 07:00 24.2 100 22 24.2 0 0 1010.4 0 47.5 46.3 92.7 245.6 275.4 956.4
11 06:50 24.2 100 22 24.2 0 0 1013.1 0 47.5 46.4 92.9 246.0 275.9 958.1
11 06:40 24.1 100 21.88 24.1 0 0 1013.1 0 47.2 46.2 92.4 244.7 274.2 952.4
11 06:30 24.2 100 22 24.2 0 0 1010.1 0 47.5 46.3 92.7 245.5 275.3 956.3
11 06:20 24.2 100 22 24.2 0 0 1013.1 0 47.5 46.4 92.9 246.0 275.9 958.1
11 06:10 24.2 100 22 24.2 0 0 1013.1 0 47.5 46.4 92.9 246.0 275.9 958.1
11 06:00 24.2 100 22 24.2 0 0 1009.9 0 47.5 46.3 92.7 245.5 275.3 956.1
11 05:50 24.2 100 22 24.2 0 0 1013.1 0 47.5 46.4 92.9 246.0 275.9 958.1
11 05:40 24.2 100 22 24.2 0 0 1013.1 0 47.5 46.4 92.9 246.0 275.9 958.1
11 04:50 24.2 100 22 24.2 0 0 1013.1 0 47.5 46.4 92.9 246.0 275.9 958.1
11 04:40 24.1 100 21.88 24.1 0 0 1013.1 0 47.2 46.2 92.4 244.7 274.2 952.4
11 04:30 24.1 100 21.88 24.1 0 0 1009.5 0 47.2 46.0 92.2 244.1 273.6 950.2
11 04:20 23.9 100 21.63 23.9 0 0 1013.1 0 46.7 45.8 91.4 242.0 270.8 940.4

Last Refresh: 11-Apr-2021 21:43:48

Bureau of Meteorology